createdAt,value
2022-09-18T00:01:06.787Z,18.18
2022-09-18T00:03:07.012Z,18.16
2022-09-18T00:05:06.780Z,18.12
2022-09-18T00:08:40.632Z,18.24
2022-09-18T00:10:40.563Z,18.19
2022-09-18T00:12:40.620Z,18.17
2022-09-18T00:14:40.549Z,18.21
2022-09-18T00:16:40.739Z,18.13
2022-09-18T00:18:40.702Z,18.15
2022-09-18T00:20:40.563Z,18.08
2022-09-18T00:23:28.996Z,18.18
2022-09-18T00:25:28.997Z,18.14
2022-09-18T00:27:28.950Z,18.13
2022-09-18T00:29:28.964Z,18.11
2022-09-18T00:31:29.017Z,18.16
2022-09-18T00:33:28.954Z,18.17
2022-09-18T00:35:29.104Z,18.14
2022-09-18T00:38:25.969Z,18.18
2022-09-18T00:40:26.052Z,18.15
2022-09-18T00:42:25.971Z,18.15
2022-09-18T00:44:26.009Z,18.2
2022-09-18T00:46:25.995Z,18.24
2022-09-18T00:48:25.971Z,18.29
2022-09-18T00:50:25.974Z,18.3
2022-09-18T00:53:27.511Z,18.28
2022-09-18T00:55:27.400Z,18.29
2022-09-18T00:57:27.380Z,17.98
2022-09-18T00:59:27.401Z,18.01
2022-09-18T01:01:27.453Z,17.87
2022-09-18T01:03:27.389Z,17.99
2022-09-18T01:05:27.420Z,17.96
2022-09-18T01:09:01.802Z,17.98
2022-09-18T01:11:01.431Z,18.04
2022-09-18T01:13:01.425Z,17.99
2022-09-18T01:15:01.484Z,17.95
2022-09-18T01:17:01.426Z,17.95
2022-09-18T01:19:01.426Z,18.04
2022-09-18T01:21:01.425Z,17.97
2022-09-18T01:23:59.360Z,17.85
2022-09-18T01:25:59.411Z,17.69
2022-09-18T01:27:59.240Z,17.77
2022-09-18T01:29:59.246Z,17.41
2022-09-18T01:31:59.290Z,17.38
2022-09-18T01:33:59.244Z,17.33
2022-09-18T01:35:59.253Z,17.31
2022-09-18T01:38:55.017Z,17.27
2022-09-18T01:40:55.055Z,17.05
2022-09-18T01:42:55.135Z,16.83
2022-09-18T01:44:55.004Z,16.84
2022-09-18T01:46:55.116Z,16.64
2022-09-18T01:48:55.030Z,16.49
2022-09-18T01:50:55.047Z,16.65
2022-09-18T01:52:55.059Z,16.69
2022-09-18T01:54:14.848Z,16.63
2022-09-18T01:56:14.837Z,16.38
2022-09-18T01:58:14.995Z,16.49
2022-09-18T02:00:14.853Z,16.38
2022-09-18T02:02:15.028Z,16.16
2022-09-18T02:04:14.832Z,15.85
2022-09-18T02:06:14.833Z,15.75
2022-09-18T02:09:31.736Z,15.65
2022-09-18T02:11:31.756Z,15.52
2022-09-18T02:13:31.808Z,15.44
2022-09-18T02:15:31.672Z,15.26
2022-09-18T02:17:31.661Z,15.11
2022-09-18T02:19:32.044Z,14.98
2022-09-18T02:21:31.695Z,14.93
2022-09-18T02:25:15.875Z,14.86
2022-09-18T02:27:15.900Z,14.92
2022-09-18T02:29:16.013Z,14.43
2022-09-18T02:31:16.010Z,14.52
2022-09-18T02:33:15.866Z,14.36
2022-09-18T02:35:15.892Z,14.44
2022-09-18T02:37:15.892Z,14.53
2022-09-18T02:40:01.775Z,14.43
2022-09-18T02:42:01.751Z,14.3
2022-09-18T02:44:01.699Z,14.38
2022-09-18T02:46:01.890Z,14.28
2022-09-18T02:48:01.706Z,14.18
2022-09-18T02:50:04.350Z,14.15
2022-09-18T02:52:01.700Z,13.8
2022-09-18T02:55:31.763Z,13.83
2022-09-18T02:57:31.742Z,13.82
2022-09-18T02:59:31.677Z,13.76
2022-09-18T03:01:31.854Z,13.81
2022-09-18T03:03:31.718Z,13.76
2022-09-18T03:05:31.678Z,13.66
2022-09-18T03:07:31.716Z,13.53
2022-09-18T03:10:36.199Z,13.38
2022-09-18T03:12:36.222Z,13.42
2022-09-18T03:14:36.205Z,13.41
2022-09-18T03:16:36.429Z,13.31
2022-09-18T03:18:36.168Z,13.3
2022-09-18T03:20:36.190Z,13.26
2022-09-18T03:22:36.216Z,13.17
2022-09-18T03:25:31.980Z,13.1
2022-09-18T03:27:31.976Z,13.08
2022-09-18T03:29:32.028Z,12.65
2022-09-18T03:31:32.060Z,12.8
2022-09-18T03:33:32.087Z,12.73
2022-09-18T03:35:32.016Z,12.53
2022-09-18T03:37:31.969Z,12.53
2022-09-18T03:40:30.639Z,12.59
2022-09-18T03:42:30.581Z,12.68
2022-09-18T03:44:30.555Z,12.61
2022-09-18T03:46:30.639Z,12.64
2022-09-18T03:48:30.560Z,12.49
2022-09-18T03:50:30.696Z,12.54
2022-09-18T03:52:30.559Z,12.37
2022-09-18T03:56:01.901Z,12.45
2022-09-18T03:58:01.919Z,12.43
2022-09-18T04:00:01.869Z,12.37
2022-09-18T04:02:02.077Z,12.46
2022-09-18T04:04:01.868Z,12.37
2022-09-18T04:06:01.983Z,12.25
2022-09-18T04:08:01.884Z,12.2
2022-09-18T04:11:25.629Z,12.26
2022-09-18T04:13:25.604Z,12.29
2022-09-18T04:15:25.625Z,12.36
2022-09-18T04:17:25.603Z,12.42
2022-09-18T04:19:25.609Z,12.41
2022-09-18T04:21:25.761Z,12.26
2022-09-18T04:23:25.605Z,12.18
2022-09-18T04:25:44.835Z,12.35
2022-09-18T04:27:44.843Z,12.39
2022-09-18T04:29:44.905Z,12.38
2022-09-18T04:31:44.873Z,12.44
2022-09-18T04:33:44.883Z,12.35
2022-09-18T04:35:44.828Z,12.15
2022-09-18T04:37:44.956Z,12.2
2022-09-18T04:39:44.829Z,12.32
2022-09-18T04:41:01.051Z,12.14
2022-09-18T04:43:01.090Z,12.27
2022-09-18T04:45:01.051Z,12.17
2022-09-18T04:47:01.099Z,12.11
2022-09-18T04:49:01.078Z,12.01
2022-09-18T04:51:01.126Z,11.88
2022-09-18T04:53:01.203Z,12.09
2022-09-18T04:55:01.073Z,12.15
2022-09-18T04:56:25.203Z,12.15
2022-09-18T04:58:25.188Z,12.17
2022-09-18T05:00:25.258Z,12.11
2022-09-18T05:02:25.232Z,12.04
2022-09-18T05:04:25.181Z,11.68
2022-09-18T05:06:25.182Z,11.72
2022-09-18T05:08:25.311Z,11.56
2022-09-18T05:11:17.787Z,11.62
2022-09-18T05:13:17.791Z,11.55
2022-09-18T05:15:17.781Z,11.49
2022-09-18T05:17:17.765Z,11.31
2022-09-18T05:19:17.781Z,11.3
2022-09-18T05:21:17.815Z,11.42
2022-09-18T05:23:17.764Z,11.35
2022-09-18T05:25:17.926Z,11.47
2022-09-18T05:27:16.605Z,11.71
2022-09-18T05:29:16.570Z,11.92
2022-09-18T05:31:16.747Z,11.85
2022-09-18T05:33:16.554Z,11.71
2022-09-18T05:35:16.586Z,11.95
2022-09-18T05:37:16.555Z,12.18
2022-09-18T05:39:17.683Z,11.87
2022-09-18T05:42:08.649Z,12.08
2022-09-18T05:44:08.523Z,12.15
2022-09-18T05:46:08.614Z,12.21
2022-09-18T05:48:08.554Z,12
2022-09-18T05:50:08.504Z,12.2
2022-09-18T05:52:08.503Z,11.98
2022-09-18T05:54:08.492Z,11.99
2022-09-18T05:57:32.079Z,12.05
2022-09-18T05:59:32.087Z,12.05
2022-09-18T06:01:32.008Z,11.46
2022-09-18T06:03:32.017Z,11.83
2022-09-18T06:05:31.964Z,12.05
2022-09-18T06:07:31.964Z,11.75
2022-09-18T06:09:31.968Z,11.98
2022-09-18T06:11:55.402Z,12.23
2022-09-18T06:13:55.526Z,11.98
2022-09-18T06:15:55.453Z,11.64
2022-09-18T06:17:55.392Z,11.74
2022-09-18T06:19:55.399Z,11.85
2022-09-18T06:21:55.384Z,11.46
2022-09-18T06:23:55.404Z,11.64
2022-09-18T06:25:55.402Z,11.75
2022-09-18T06:27:08.952Z,11.89
2022-09-18T06:29:09.127Z,11.98
2022-09-18T06:31:08.976Z,12.32
2022-09-18T06:33:08.952Z,12.12
2022-09-18T06:35:09.006Z,11.63
2022-09-18T06:37:08.969Z,11.51
2022-09-18T06:39:08.961Z,12.08
2022-09-18T06:41:08.940Z,12.29
2022-09-18T06:42:51.814Z,12.61
2022-09-18T06:44:52.088Z,12.84
2022-09-18T06:46:51.878Z,12.77
2022-09-18T06:48:51.815Z,12.73
2022-09-18T06:50:51.847Z,12.63
2022-09-18T06:52:51.801Z,13.2
2022-09-18T06:54:51.832Z,13.24
2022-09-18T06:57:58.427Z,12.26
2022-09-18T06:59:58.673Z,12.64
2022-09-18T07:01:58.403Z,13.2
2022-09-18T07:03:58.263Z,12.89
2022-09-18T07:05:58.369Z,13.12
2022-09-18T07:07:58.447Z,13.42
2022-09-18T07:09:58.336Z,13.32
2022-09-18T07:13:29.119Z,13.39
2022-09-18T07:15:29.244Z,13.06
2022-09-18T07:17:29.312Z,13.17
2022-09-18T07:19:29.303Z,12.72
2022-09-18T07:21:29.352Z,13.1
2022-09-18T07:23:29.245Z,12.89
2022-09-18T07:25:29.108Z,13.33
2022-09-18T07:27:42.993Z,13.87
2022-09-18T07:29:42.944Z,14.48
2022-09-18T07:31:43.161Z,14.26
2022-09-18T07:33:42.949Z,14.08
2022-09-18T07:35:42.934Z,14.6
2022-09-18T07:37:42.976Z,14.41
2022-09-18T07:39:42.945Z,15.04
2022-09-18T07:41:42.957Z,15.13
2022-09-18T07:43:10.885Z,14.26
2022-09-18T07:45:10.864Z,14.38
2022-09-18T07:47:11.026Z,14.93
2022-09-18T07:49:10.905Z,15.13
2022-09-18T07:51:10.869Z,15.03
2022-09-18T07:53:10.859Z,14.93
2022-09-18T07:55:10.848Z,14.92
2022-09-18T07:58:14.948Z,14.8
2022-09-18T08:00:15.091Z,14.96
2022-09-18T08:02:15.241Z,14.32
2022-09-18T08:04:14.945Z,13.59
2022-09-18T08:06:14.950Z,13.89
2022-09-18T08:08:14.944Z,14.03
2022-09-18T08:10:14.952Z,13.69
2022-09-18T08:12:14.933Z,13.73
2022-09-18T08:13:30.492Z,13.59
2022-09-18T08:15:30.497Z,13.35
2022-09-18T08:17:30.610Z,13.4
2022-09-18T08:19:30.507Z,13.36
2022-09-18T08:21:30.454Z,13.23
2022-09-18T08:23:30.459Z,12.98
2022-09-18T08:25:30.522Z,12.97
2022-09-18T08:28:48.764Z,13.95
2022-09-18T08:30:48.751Z,14.11
2022-09-18T08:32:48.926Z,14.1
2022-09-18T08:34:48.757Z,14.08
2022-09-18T08:36:48.751Z,14.37
2022-09-18T08:38:48.842Z,14.42
2022-09-18T08:40:49.161Z,14.37
2022-09-18T08:44:15.543Z,15.29
2022-09-18T08:46:15.491Z,14.98
2022-09-18T08:48:15.502Z,14.61
2022-09-18T08:50:15.428Z,14.85
2022-09-18T08:52:15.430Z,14.83
2022-09-18T08:54:15.378Z,15.39
2022-09-18T08:56:15.435Z,15.36
2022-09-18T08:59:21.624Z,15.36
2022-09-18T09:01:21.670Z,15.36
2022-09-18T09:03:21.734Z,15.52
2022-09-18T09:05:21.638Z,14.83
2022-09-18T09:07:21.603Z,14.93
2022-09-18T09:09:21.745Z,14.49
2022-09-18T09:11:21.600Z,14.88
2022-09-18T09:14:57.336Z,15.57
2022-09-18T09:16:51.694Z,15.24
2022-09-18T09:18:51.805Z,14.03
2022-09-18T09:20:51.729Z,14.53
2022-09-18T09:22:51.682Z,14.9
2022-09-18T09:24:51.674Z,15.12
2022-09-18T09:26:51.689Z,14.74
2022-09-18T09:30:07.393Z,14.83
2022-09-18T09:32:07.416Z,14.19
2022-09-18T09:34:07.508Z,13.85
2022-09-18T09:36:07.459Z,14.31
2022-09-18T09:38:07.397Z,14.48
2022-09-18T09:40:07.564Z,14.96
2022-09-18T09:42:07.384Z,14.78
2022-09-18T09:44:45.034Z,15.25
2022-09-18T09:46:45.443Z,14.47
2022-09-18T09:48:45.444Z,14.46
2022-09-18T09:50:45.079Z,14.87
2022-09-18T09:52:45.013Z,15.14
2022-09-18T09:54:45.052Z,15.42
2022-09-18T09:56:45.004Z,15.7
2022-09-18T09:59:46.555Z,15.63
2022-09-18T10:01:46.406Z,15.84
2022-09-18T10:03:46.403Z,15.94
2022-09-18T10:05:49.338Z,16.05
2022-09-18T10:07:46.507Z,16.19
2022-09-18T10:09:46.426Z,16.21
2022-09-18T10:11:46.355Z,16.15
2022-09-18T10:15:24.744Z,15.64
2022-09-18T10:17:24.554Z,15.42
2022-09-18T10:19:24.535Z,15.42
2022-09-18T10:21:24.588Z,15.25
2022-09-18T10:23:25.610Z,15.83
2022-09-18T10:25:24.529Z,16.39
2022-09-18T10:27:24.532Z,16.38
2022-09-18T10:30:03.550Z,16.49
2022-09-18T10:32:03.498Z,16.77
2022-09-18T10:34:03.819Z,16.73
2022-09-18T10:36:03.512Z,16.87
2022-09-18T10:38:03.513Z,17.27
2022-09-18T10:40:03.728Z,17.44
2022-09-18T10:42:03.515Z,17
2022-09-18T10:45:31.547Z,15.62
2022-09-18T10:47:31.540Z,16.13
2022-09-18T10:49:31.543Z,16.2
2022-09-18T10:51:31.586Z,15.82
2022-09-18T10:53:31.547Z,15.42
2022-09-18T10:55:31.685Z,15.53
2022-09-18T10:57:31.551Z,16.09
2022-09-18T11:00:35.438Z,15.3
2022-09-18T11:02:35.414Z,15.47
2022-09-18T11:04:35.307Z,14.87
2022-09-18T11:06:35.367Z,15.18
2022-09-18T11:08:35.300Z,15.46
2022-09-18T11:10:35.473Z,15.75
2022-09-18T11:12:35.304Z,16.1
2022-09-18T11:16:19.557Z,15.62
2022-09-18T11:18:19.448Z,15.7
2022-09-18T11:20:19.536Z,16.21
2022-09-18T11:22:19.466Z,16.23
2022-09-18T11:24:19.502Z,16.48
2022-09-18T11:26:19.614Z,16.2
2022-09-18T11:28:19.483Z,15.88
2022-09-18T11:30:42.247Z,15.37
2022-09-18T11:32:42.285Z,15.62
2022-09-18T11:34:42.125Z,15.68
2022-09-18T11:36:42.161Z,15.83
2022-09-18T11:38:42.115Z,15.96
2022-09-18T11:40:42.182Z,16.08
2022-09-18T11:42:42.246Z,15.96
2022-09-18T11:46:14.738Z,15.65
2022-09-18T11:48:14.700Z,15.41
2022-09-18T11:50:14.637Z,15.5
2022-09-18T11:52:14.651Z,14.62
2022-09-18T11:54:14.689Z,15.24
2022-09-18T11:56:14.638Z,15.69
2022-09-18T11:58:14.809Z,15.94
2022-09-18T12:01:01.858Z,16.09
2022-09-18T12:02:58.656Z,16.27
2022-09-18T12:04:58.565Z,16.56
2022-09-18T12:06:58.571Z,16.42
2022-09-18T12:08:57.216Z,16.84
2022-09-18T12:10:57.253Z,16.65
2022-09-18T12:12:57.226Z,16.41
2022-09-18T12:14:57.324Z,16.19
2022-09-18T12:16:08.182Z,16.17
2022-09-18T12:18:08.073Z,15.67
2022-09-18T12:20:08.103Z,15.35
2022-09-18T12:22:08.066Z,15.29
2022-09-18T12:24:08.104Z,15.9
2022-09-18T12:26:08.089Z,15.47
2022-09-18T12:28:08.118Z,15.13
2022-09-18T12:30:08.217Z,14.42
2022-09-18T12:31:15.777Z,14.27
2022-09-18T12:33:15.827Z,14.45
2022-09-18T12:35:15.762Z,14.85
2022-09-18T12:37:15.684Z,14.5
2022-09-18T12:39:16.376Z,14.71
2022-09-18T12:41:16.357Z,14.36
2022-09-18T12:43:16.363Z,14.9
2022-09-18T12:45:16.561Z,15.16
2022-09-18T12:46:32.039Z,15.15
2022-09-18T12:48:32.039Z,15.15
2022-09-18T12:50:32.043Z,15.35
2022-09-18T12:52:32.024Z,14.57
2022-09-18T12:54:32.055Z,15.08
2022-09-18T12:56:32.122Z,14.9
2022-09-18T12:58:32.188Z,14.95
2022-09-18T13:01:36.377Z,15.53
2022-09-18T13:03:36.284Z,15.7
2022-09-18T13:05:36.314Z,15.71
2022-09-18T13:07:36.248Z,15.31
2022-09-18T13:09:36.244Z,15.78
2022-09-18T13:11:36.247Z,16.3
2022-09-18T13:13:36.292Z,16.45
2022-09-18T13:15:36.228Z,16.28
2022-09-18T13:16:54.373Z,16.23
2022-09-18T13:18:54.257Z,15.72
2022-09-18T13:20:54.292Z,15.54
2022-09-18T13:22:54.220Z,15.08
2022-09-18T13:24:54.252Z,14.85
2022-09-18T13:26:54.225Z,15.18
2022-09-18T13:28:54.220Z,15.28
2022-09-18T13:32:50.127Z,15.58
2022-09-18T13:34:49.969Z,15.55
2022-09-18T13:36:49.960Z,15.41
2022-09-18T13:38:50.245Z,14.87
2022-09-18T13:40:50.007Z,14.74
2022-09-18T13:42:49.999Z,15.24
2022-09-18T13:44:49.949Z,15.14
2022-09-18T13:47:36.551Z,14.92
2022-09-18T13:49:36.643Z,15.36
2022-09-18T13:51:36.519Z,15.73
2022-09-18T13:53:36.237Z,15.89
2022-09-18T13:55:36.304Z,16.23
2022-09-18T13:57:36.219Z,15.95
2022-09-18T13:59:36.194Z,15.52
2022-09-18T14:02:14.216Z,16.38
2022-09-18T14:04:14.051Z,16.5
2022-09-18T14:06:14.162Z,16.21
2022-09-18T14:08:14.119Z,16.3
2022-09-18T14:10:14.055Z,15.94
2022-09-18T14:12:14.087Z,15.26
2022-09-18T14:14:14.033Z,15.6
2022-09-18T14:16:14.061Z,15.75
2022-09-18T14:17:54.108Z,15.92
2022-09-18T14:19:53.986Z,15.59
2022-09-18T14:21:54.144Z,15.64
2022-09-18T14:23:54.120Z,15.36
2022-09-18T14:25:53.977Z,15.47
2022-09-18T14:27:54.026Z,15.31
2022-09-18T14:29:53.984Z,15.22
2022-09-18T14:33:23.636Z,15.15
2022-09-18T14:35:23.546Z,15.12
2022-09-18T14:37:23.659Z,14.92
2022-09-18T14:39:23.552Z,15.16
2022-09-18T14:41:23.550Z,15.16
2022-09-18T14:43:23.604Z,15.31
2022-09-18T14:45:23.609Z,15.25
2022-09-18T14:48:07.233Z,15.26
2022-09-18T14:50:07.157Z,15.37
2022-09-18T14:52:07.163Z,15.13
2022-09-18T14:54:07.311Z,15.08
2022-09-18T14:56:07.178Z,14.72
2022-09-18T14:58:07.175Z,14.69
2022-09-18T15:00:07.591Z,14.62
2022-09-18T15:03:07.682Z,14.89
2022-09-18T15:05:07.731Z,15.07
2022-09-18T15:07:07.675Z,15.15
2022-09-18T15:09:07.734Z,15.23
2022-09-18T15:11:07.807Z,14.91
2022-09-18T15:13:07.677Z,14.83
2022-09-18T15:15:07.700Z,14.77
2022-09-18T15:18:04.495Z,14.77
2022-09-18T15:20:04.216Z,15
2022-09-18T15:22:04.275Z,14.93
2022-09-18T15:24:04.244Z,14.84
2022-09-18T15:26:04.229Z,14.68
2022-09-18T15:28:04.384Z,14.76
2022-09-18T15:30:04.223Z,14.47
2022-09-18T15:32:04.434Z,14.61
2022-09-18T15:33:29.567Z,14.76
2022-09-18T15:35:29.532Z,14.73
2022-09-18T15:37:29.589Z,14.51
2022-09-18T15:39:29.554Z,14.43
2022-09-18T15:41:29.563Z,14.22
2022-09-18T15:43:29.705Z,14.22
2022-09-18T15:45:29.537Z,14.13
2022-09-18T15:48:55.488Z,14.37
2022-09-18T15:50:55.458Z,14.51
2022-09-18T15:52:55.609Z,14.48
2022-09-18T15:54:55.438Z,14.56
2022-09-18T15:56:55.479Z,14.22
2022-09-18T15:58:55.557Z,14.23
2022-09-18T16:00:55.494Z,14.31
2022-09-18T16:03:37.850Z,14.2
2022-09-18T16:05:37.796Z,14.15
2022-09-18T16:07:37.782Z,14.14
2022-09-18T16:09:37.855Z,14.06
2022-09-18T16:11:37.809Z,13.97
2022-09-18T16:13:37.780Z,13.98
2022-09-18T16:15:37.932Z,13.91
2022-09-18T16:17:37.785Z,13.93
2022-09-18T16:19:29.950Z,13.92
2022-09-18T16:21:29.962Z,13.81
2022-09-18T16:23:29.992Z,13.75
2022-09-18T16:25:29.945Z,13.71
2022-09-18T16:27:29.984Z,13.56
2022-09-18T16:29:29.935Z,13.39
2022-09-18T16:31:30.146Z,13.23
2022-09-18T16:34:36.218Z,13.01
2022-09-18T16:36:36.273Z,12.95
2022-09-18T16:38:36.202Z,12.84
2022-09-18T16:40:36.294Z,12.69
2022-09-18T16:42:36.269Z,12.58
2022-09-18T16:44:36.188Z,12.51
2022-09-18T16:46:36.328Z,12.44
2022-09-18T16:49:53.460Z,12.26
2022-09-18T16:51:53.463Z,12.21
2022-09-18T16:53:53.391Z,12.11
2022-09-18T16:55:53.383Z,12.01
2022-09-18T16:57:53.421Z,11.93
2022-09-18T16:59:53.390Z,11.81
2022-09-18T17:02:03.644Z,11.67
2022-09-18T17:04:56.346Z,11.64
2022-09-18T17:06:56.374Z,11.58
2022-09-18T17:08:56.323Z,11.48
2022-09-18T17:10:56.330Z,11.41
2022-09-18T17:12:56.327Z,11.36
2022-09-18T17:14:56.322Z,11.26
2022-09-18T17:16:56.491Z,11.14
2022-09-18T17:19:30.953Z,11
2022-09-18T17:21:30.885Z,10.89
2022-09-18T17:23:30.856Z,10.9
2022-09-18T17:25:30.936Z,10.95
2022-09-18T17:27:30.882Z,10.83
2022-09-18T17:29:30.913Z,10.76
2022-09-18T17:31:30.936Z,10.74
2022-09-18T17:33:31.001Z,10.66
2022-09-18T17:35:25.731Z,10.57
2022-09-18T17:37:25.725Z,10.49
2022-09-18T17:39:25.731Z,10.45
2022-09-18T17:41:25.769Z,10.48
2022-09-18T17:43:25.767Z,10.42
2022-09-18T17:45:25.962Z,10.38
2022-09-18T17:47:25.779Z,10.32
2022-09-18T17:50:31.290Z,10.25
2022-09-18T17:52:31.210Z,10.18
2022-09-18T17:54:31.174Z,10.18
2022-09-18T17:56:31.151Z,10.14
2022-09-18T17:58:31.206Z,10.02
2022-09-18T18:00:31.194Z,9.89
2022-09-18T18:02:31.260Z,9.98
2022-09-18T18:05:25.163Z,10
2022-09-18T18:07:25.364Z,9.9
2022-09-18T18:09:25.213Z,9.93
2022-09-18T18:11:25.231Z,9.93
2022-09-18T18:13:25.215Z,9.88
2022-09-18T18:15:25.172Z,9.85
2022-09-18T18:17:25.172Z,9.74
2022-09-18T18:20:32.125Z,9.77
2022-09-18T18:22:32.234Z,9.71
2022-09-18T18:24:32.111Z,9.66
2022-09-18T18:26:32.104Z,9.66
2022-09-18T18:28:32.138Z,9.65
2022-09-18T18:30:32.135Z,9.52
2022-09-18T18:32:32.111Z,9.47
2022-09-18T18:35:49.199Z,9.49
2022-09-18T18:37:49.317Z,9.48
2022-09-18T18:39:49.153Z,9.48
2022-09-18T18:41:49.167Z,9.39
2022-09-18T18:43:49.149Z,9.28
2022-09-18T18:45:49.148Z,9.17
2022-09-18T18:47:49.158Z,9.03
2022-09-18T18:50:31.157Z,8.97
2022-09-18T18:52:31.194Z,8.98
2022-09-18T18:54:31.265Z,8.96
2022-09-18T18:56:31.320Z,8.77
2022-09-18T18:58:31.204Z,8.88
2022-09-18T19:00:31.178Z,8.91
2022-09-18T19:02:31.183Z,8.94
2022-09-18T19:04:31.137Z,8.91
2022-09-18T19:05:42.234Z,8.9
2022-09-18T19:07:42.242Z,8.96
2022-09-18T19:09:42.350Z,8.94
2022-09-18T19:11:42.308Z,8.95
2022-09-18T19:13:42.271Z,8.94
2022-09-18T19:15:42.203Z,8.86
2022-09-18T19:17:42.252Z,8.84
2022-09-18T19:21:22.487Z,8.81
2022-09-18T19:23:22.499Z,8.79
2022-09-18T19:25:22.652Z,8.82
2022-09-18T19:27:22.494Z,8.82
2022-09-18T19:29:22.486Z,8.84
2022-09-18T19:31:22.580Z,8.93
2022-09-18T19:33:22.490Z,8.89
2022-09-18T19:36:05.093Z,8.83
2022-09-18T19:38:05.037Z,8.78
2022-09-18T19:40:05.095Z,8.79
2022-09-18T19:42:05.198Z,8.82
2022-09-18T19:44:05.048Z,8.83
2022-09-18T19:46:05.084Z,8.76
2022-09-18T19:48:05.071Z,8.75
2022-09-18T19:51:39.929Z,8.66
2022-09-18T19:53:39.924Z,8.69
2022-09-18T19:55:39.899Z,8.67
2022-09-18T19:57:40.071Z,8.64
2022-09-18T19:59:40.014Z,8.52
2022-09-18T20:01:39.919Z,8.51
2022-09-18T20:03:39.887Z,8.52
2022-09-18T20:06:39.847Z,8.42
2022-09-18T20:08:39.806Z,8.46
2022-09-18T20:10:39.820Z,8.46
2022-09-18T20:12:39.846Z,8.45
2022-09-18T20:14:39.924Z,8.36
2022-09-18T20:16:39.864Z,8.27
2022-09-18T20:18:39.798Z,8.31
2022-09-18T20:21:45.485Z,8.34
2022-09-18T20:23:45.454Z,8.4
2022-09-18T20:25:45.483Z,8.33
2022-09-18T20:27:45.467Z,8.22
2022-09-18T20:29:45.564Z,8.17
2022-09-18T20:31:45.659Z,8.14
2022-09-18T20:33:45.441Z,8.05
2022-09-18T20:36:50.733Z,7.79
2022-09-18T20:38:50.680Z,7.93
2022-09-18T20:40:50.674Z,8.04
2022-09-18T20:42:50.700Z,8.01
2022-09-18T20:44:50.795Z,7.94
2022-09-18T20:46:50.689Z,7.87
2022-09-18T20:48:50.686Z,7.83
2022-09-18T20:51:51.513Z,7.8
2022-09-18T20:53:51.510Z,7.71
2022-09-18T20:55:51.503Z,7.74
2022-09-18T20:57:51.502Z,7.8
2022-09-18T20:59:51.509Z,7.85
2022-09-18T21:01:51.675Z,7.73
2022-09-18T21:03:51.508Z,7.7
2022-09-18T21:07:24.376Z,7.77
2022-09-18T21:09:24.376Z,7.7
2022-09-18T21:11:24.378Z,7.54
2022-09-18T21:13:24.414Z,7.55
2022-09-18T21:15:24.367Z,7.54
2022-09-18T21:17:24.512Z,7.39
2022-09-18T21:19:24.371Z,7.14
2022-09-18T21:22:21.495Z,7.23
2022-09-18T21:24:21.471Z,6.88
2022-09-18T21:26:21.505Z,6.75
2022-09-18T21:28:21.472Z,6.98
2022-09-18T21:30:21.457Z,7.09
2022-09-18T21:32:21.501Z,7.17
2022-09-18T21:34:21.585Z,7.06
2022-09-18T21:37:47.745Z,6.78
2022-09-18T21:39:47.731Z,6.96
2022-09-18T21:41:47.772Z,7
2022-09-18T21:43:47.726Z,6.89
2022-09-18T21:45:47.770Z,6.83
2022-09-18T21:47:47.724Z,6.73
2022-09-18T21:49:47.792Z,6.88
2022-09-18T21:53:06.462Z,6.66
2022-09-18T21:55:06.531Z,6.63
2022-09-18T21:57:06.509Z,6.73
2022-09-18T21:59:06.483Z,6.86
2022-09-18T22:01:06.499Z,6.89
2022-09-18T22:03:06.449Z,6.92
2022-09-18T22:05:06.588Z,6.92
2022-09-18T22:07:39.481Z,6.86
2022-09-18T22:09:39.438Z,6.9
2022-09-18T22:11:39.428Z,6.89
2022-09-18T22:13:39.432Z,6.9
2022-09-18T22:15:39.438Z,6.77
2022-09-18T22:17:39.443Z,6.77
2022-09-18T22:19:41.594Z,6.66
2022-09-18T22:22:58.211Z,6.72
2022-09-18T22:24:58.069Z,6.6
2022-09-18T22:26:58.120Z,6.6
2022-09-18T22:28:58.077Z,6.7
2022-09-18T22:30:58.158Z,6.73
2022-09-18T22:32:58.085Z,6.66
2022-09-18T22:34:58.066Z,6.67
2022-09-18T22:38:35.811Z,6.58
2022-09-18T22:40:35.750Z,6.68
2022-09-18T22:42:35.751Z,6.69
2022-09-18T22:44:35.690Z,6.56
2022-09-18T22:46:35.745Z,6.55
2022-09-18T22:48:35.697Z,6.49
2022-09-18T22:50:35.700Z,6.38
2022-09-18T22:53:42.971Z,6.56
2022-09-18T22:55:40.070Z,6.42
2022-09-18T22:57:40.050Z,6.36
2022-09-18T22:59:40.104Z,6.38
2022-09-18T23:01:40.059Z,6.41
2022-09-18T23:03:40.092Z,6.43
2022-09-18T23:05:40.047Z,6.44
2022-09-18T23:08:57.763Z,6.4
2022-09-18T23:10:57.669Z,6.45
2022-09-18T23:12:57.645Z,6.48
2022-09-18T23:14:57.649Z,6.41
2022-09-18T23:16:57.680Z,6.43
2022-09-18T23:18:57.696Z,6.4
2022-09-18T23:20:57.669Z,6.4
2022-09-18T23:24:09.496Z,6.3
2022-09-18T23:26:08.978Z,6.21
2022-09-18T23:28:08.944Z,6.14
2022-09-18T23:30:08.971Z,6.23
2022-09-18T23:32:08.924Z,6.18
2022-09-18T23:34:08.929Z,6.14
2022-09-18T23:36:08.974Z,6.19
2022-09-18T23:39:16.713Z,6.09
2022-09-18T23:41:16.728Z,6.06
2022-09-18T23:43:16.682Z,6.14
2022-09-18T23:45:16.719Z,6.24
2022-09-18T23:47:16.736Z,6.24
2022-09-18T23:49:16.678Z,6.16
2022-09-18T23:51:16.730Z,6.14
2022-09-18T23:54:27.844Z,6.12
2022-09-18T23:56:27.825Z,6.14
2022-09-18T23:58:27.780Z,6.08
